createdAt,value
2022-12-26T00:00:13.206Z,2
2022-12-26T00:01:13.176Z,2
2022-12-26T00:02:13.164Z,1
2022-12-26T00:03:13.250Z,1
2022-12-26T00:04:50.958Z,1
2022-12-26T00:05:13.167Z,1
2022-12-26T00:06:13.186Z,2
2022-12-26T00:07:13.165Z,1
2022-12-26T00:08:13.173Z,1
2022-12-26T00:09:13.243Z,1
2022-12-26T00:10:13.201Z,2
2022-12-26T00:11:13.188Z,2
2022-12-26T00:12:13.190Z,2
2022-12-26T00:13:40.114Z,1
2022-12-26T00:14:13.172Z,2
2022-12-26T00:15:13.232Z,1
2022-12-26T00:16:13.295Z,1
2022-12-26T00:17:13.235Z,2
2022-12-26T00:18:13.355Z,2
2022-12-26T00:19:13.180Z,2
2022-12-26T00:20:13.179Z,1
2022-12-26T00:21:13.187Z,1
2022-12-26T00:22:13.179Z,2
2022-12-26T00:23:13.419Z,1
2022-12-26T00:24:13.180Z,1
2022-12-26T00:25:13.182Z,2
2022-12-26T00:26:13.189Z,1
2022-12-26T00:27:13.378Z,1
2022-12-26T00:28:13.463Z,1
2022-12-26T00:29:13.196Z,1
2022-12-26T00:30:13.195Z,1
2022-12-26T00:31:13.242Z,1
2022-12-26T00:32:13.185Z,1
2022-12-26T00:33:13.518Z,1
2022-12-26T00:34:13.190Z,1
2022-12-26T00:35:13.189Z,2
2022-12-26T00:36:13.195Z,2
2022-12-26T00:37:13.187Z,1
2022-12-26T00:38:13.189Z,1
2022-12-26T00:39:13.192Z,1
2022-12-26T00:40:13.184Z,1
2022-12-26T00:41:13.191Z,1
2022-12-26T00:42:13.193Z,1
2022-12-26T00:43:13.184Z,1
2022-12-26T00:44:13.175Z,2
2022-12-26T00:45:13.182Z,1
2022-12-26T00:46:13.220Z,1
2022-12-26T00:47:13.310Z,1
2022-12-26T00:48:13.188Z,1
2022-12-26T00:49:13.186Z,1
2022-12-26T00:50:15.793Z,1
2022-12-26T00:51:13.263Z,2
2022-12-26T00:52:13.188Z,1
2022-12-26T00:53:13.185Z,2
2022-12-26T00:54:13.183Z,2
2022-12-26T00:55:13.202Z,1
2022-12-26T00:56:13.212Z,2
2022-12-26T00:57:13.218Z,2
2022-12-26T00:58:13.211Z,2
2022-12-26T00:59:13.187Z,1
2022-12-26T01:00:13.229Z,1
2022-12-26T01:01:13.282Z,2
2022-12-26T01:02:13.256Z,1
2022-12-26T01:03:13.302Z,2
2022-12-26T01:04:35.570Z,1
2022-12-26T01:05:13.200Z,1
2022-12-26T01:06:13.205Z,2
2022-12-26T01:07:13.175Z,1
2022-12-26T01:08:19.832Z,1
2022-12-26T01:09:13.232Z,1
2022-12-26T01:10:13.188Z,2
2022-12-26T01:11:13.203Z,1
2022-12-26T01:12:13.197Z,2
2022-12-26T01:13:13.179Z,2
2022-12-26T01:14:13.199Z,1
2022-12-26T01:15:13.193Z,1
2022-12-26T01:16:13.282Z,2
2022-12-26T01:17:13.209Z,2
2022-12-26T01:18:13.180Z,2
2022-12-26T01:19:13.195Z,1
2022-12-26T01:20:13.197Z,2
2022-12-26T01:21:13.212Z,2
2022-12-26T01:22:13.179Z,1
2022-12-26T01:23:13.257Z,1
2022-12-26T01:24:13.198Z,2
2022-12-26T01:25:13.188Z,1
2022-12-26T01:26:17.096Z,2
2022-12-26T01:27:13.210Z,1
2022-12-26T01:28:13.188Z,2
2022-12-26T01:29:13.184Z,1
2022-12-26T01:30:13.181Z,2
2022-12-26T01:31:13.274Z,2
2022-12-26T01:32:13.218Z,2
2022-12-26T01:33:13.183Z,2
2022-12-26T01:34:13.235Z,1
2022-12-26T01:35:13.198Z,1
2022-12-26T01:36:13.225Z,1
2022-12-26T01:37:13.230Z,2
2022-12-26T01:38:13.204Z,1
2022-12-26T01:39:13.191Z,2
2022-12-26T01:40:13.182Z,2
2022-12-26T01:41:13.200Z,1
2022-12-26T01:42:13.201Z,1
2022-12-26T01:43:13.194Z,2
2022-12-26T01:44:13.244Z,2
2022-12-26T01:45:13.201Z,2
2022-12-26T01:46:13.377Z,2
2022-12-26T01:47:13.191Z,2
2022-12-26T01:48:13.217Z,2
2022-12-26T01:49:13.242Z,2
2022-12-26T01:50:13.184Z,1
2022-12-26T01:51:13.295Z,2
2022-12-26T01:52:13.187Z,2
2022-12-26T01:53:13.200Z,1
2022-12-26T01:54:37.313Z,1
2022-12-26T01:55:13.201Z,2
2022-12-26T01:56:13.205Z,1
2022-12-26T01:57:13.214Z,2
2022-12-26T01:58:13.204Z,2
2022-12-26T01:59:13.197Z,2
2022-12-26T02:00:13.201Z,2
2022-12-26T02:01:13.290Z,2
2022-12-26T02:02:13.294Z,2
2022-12-26T02:03:13.253Z,2
2022-12-26T02:05:22.626Z,2
2022-12-26T02:06:13.205Z,2
2022-12-26T02:07:13.192Z,2
2022-12-26T02:08:13.197Z,2
2022-12-26T02:09:13.239Z,2
2022-12-26T02:10:13.200Z,2
2022-12-26T02:11:13.211Z,2
2022-12-26T02:12:36.906Z,1
2022-12-26T02:13:13.195Z,2
2022-12-26T02:14:13.205Z,2
2022-12-26T02:15:13.219Z,2
2022-12-26T02:16:13.266Z,2
2022-12-26T02:17:13.201Z,2
2022-12-26T02:18:13.235Z,2
2022-12-26T02:19:13.217Z,2
2022-12-26T02:20:13.201Z,2
2022-12-26T02:21:13.197Z,1
2022-12-26T02:22:13.196Z,1
2022-12-26T02:23:13.258Z,2
2022-12-26T02:24:13.186Z,2
2022-12-26T02:25:13.200Z,2
2022-12-26T02:26:13.198Z,2
2022-12-26T02:27:13.218Z,2
2022-12-26T02:28:13.193Z,2
2022-12-26T02:29:13.203Z,2
2022-12-26T02:30:13.200Z,2
2022-12-26T02:31:13.211Z,1
2022-12-26T02:32:13.283Z,2
2022-12-26T02:33:13.198Z,2
2022-12-26T02:34:13.222Z,1
2022-12-26T02:35:13.197Z,2
2022-12-26T02:36:13.220Z,2
2022-12-26T02:37:13.201Z,2
2022-12-26T02:38:13.195Z,2
2022-12-26T02:39:42.682Z,2
2022-12-26T02:40:13.222Z,2
2022-12-26T02:41:13.198Z,2
2022-12-26T02:42:13.202Z,2
2022-12-26T02:43:13.192Z,2
2022-12-26T02:44:13.207Z,2
2022-12-26T02:45:13.471Z,2
2022-12-26T02:46:13.346Z,2
2022-12-26T02:47:13.200Z,2
2022-12-26T02:48:13.198Z,2
2022-12-26T02:49:13.203Z,2
2022-12-26T02:50:13.288Z,2
2022-12-26T02:51:13.277Z,2
2022-12-26T02:52:13.210Z,2
2022-12-26T02:53:13.239Z,2
2022-12-26T02:54:13.201Z,2
2022-12-26T02:55:13.228Z,2
2022-12-26T02:56:13.215Z,2
2022-12-26T02:57:13.210Z,2
2022-12-26T02:58:13.191Z,2
2022-12-26T02:59:13.211Z,2
2022-12-26T03:00:13.198Z,2
2022-12-26T03:01:13.358Z,2
2022-12-26T03:02:13.426Z,2
2022-12-26T03:03:13.266Z,2
2022-12-26T03:04:13.213Z,2
2022-12-26T03:05:13.212Z,2
2022-12-26T03:06:13.224Z,2
2022-12-26T03:07:13.216Z,2
2022-12-26T03:08:13.209Z,2
2022-12-26T03:09:13.198Z,2
2022-12-26T03:10:13.211Z,2
2022-12-26T03:11:13.209Z,2
2022-12-26T03:12:13.225Z,2
2022-12-26T03:13:13.195Z,2
2022-12-26T03:14:13.195Z,2
2022-12-26T03:15:13.203Z,2
2022-12-26T03:16:13.233Z,2
2022-12-26T03:17:13.249Z,2
2022-12-26T03:18:13.275Z,2
2022-12-26T03:19:13.250Z,2
2022-12-26T03:20:13.211Z,2
2022-12-26T03:21:13.232Z,2
2022-12-26T03:22:13.220Z,2
2022-12-26T03:23:13.228Z,2
2022-12-26T03:24:13.209Z,2
2022-12-26T03:25:13.210Z,2
2022-12-26T03:26:13.248Z,2
2022-12-26T03:27:13.237Z,2
2022-12-26T03:28:14.168Z,1
2022-12-26T03:29:18.601Z,2
2022-12-26T03:30:13.204Z,2
2022-12-26T03:31:13.249Z,2
2022-12-26T03:32:13.216Z,2
2022-12-26T03:33:13.199Z,2
2022-12-26T03:34:13.203Z,2
2022-12-26T03:35:13.218Z,2
2022-12-26T03:36:13.214Z,2
2022-12-26T03:37:13.203Z,2
2022-12-26T03:38:13.210Z,2
2022-12-26T03:39:13.200Z,2
2022-12-26T03:40:13.207Z,2
2022-12-26T03:41:13.213Z,2
2022-12-26T03:42:13.272Z,2
2022-12-26T03:43:13.208Z,2
2022-12-26T03:44:13.198Z,2
2022-12-26T03:45:13.200Z,2
2022-12-26T03:46:13.280Z,2
2022-12-26T03:47:13.267Z,2
2022-12-26T03:48:13.217Z,1
2022-12-26T03:49:13.222Z,2
2022-12-26T03:50:13.201Z,2
2022-12-26T03:51:13.211Z,2
2022-12-26T03:52:13.248Z,2
2022-12-26T03:53:13.209Z,1
2022-12-26T03:54:13.276Z,1
2022-12-26T03:55:13.208Z,2
2022-12-26T03:56:13.218Z,2
2022-12-26T03:57:13.236Z,2
2022-12-26T03:58:13.204Z,1
2022-12-26T03:59:13.251Z,1
2022-12-26T04:00:13.206Z,2
2022-12-26T04:01:13.282Z,2
2022-12-26T04:02:13.350Z,1
2022-12-26T04:03:13.248Z,1
2022-12-26T04:04:13.244Z,1
2022-12-26T04:05:13.197Z,1
2022-12-26T04:06:13.200Z,1
2022-12-26T04:07:13.248Z,1
2022-12-26T04:08:18.067Z,1
2022-12-26T04:09:13.210Z,1
2022-12-26T04:10:13.210Z,1
2022-12-26T04:11:13.221Z,1
2022-12-26T04:12:13.218Z,1
2022-12-26T04:13:13.229Z,1
2022-12-26T04:14:13.201Z,2
2022-12-26T04:15:13.207Z,1
2022-12-26T04:16:13.329Z,2
2022-12-26T04:17:13.245Z,2
2022-12-26T04:18:13.337Z,1
2022-12-26T04:19:13.204Z,1
2022-12-26T04:20:13.196Z,2
2022-12-26T04:21:13.213Z,1
2022-12-26T04:22:13.229Z,1
2022-12-26T04:23:13.243Z,1
2022-12-26T04:24:13.259Z,1
2022-12-26T04:25:13.205Z,2
2022-12-26T04:26:13.252Z,1
2022-12-26T04:27:13.213Z,1
2022-12-26T04:28:13.207Z,2
2022-12-26T04:29:13.213Z,2
2022-12-26T04:30:13.216Z,1
2022-12-26T04:31:13.261Z,1
2022-12-26T04:32:13.230Z,2
2022-12-26T04:33:13.198Z,2
2022-12-26T04:34:13.203Z,2
2022-12-26T04:35:31.404Z,2
2022-12-26T04:36:13.206Z,2
2022-12-26T04:37:13.231Z,1
2022-12-26T04:38:13.459Z,1
2022-12-26T04:39:13.215Z,1
2022-12-26T04:40:13.211Z,1
2022-12-26T04:41:13.207Z,1
2022-12-26T04:42:13.221Z,1
2022-12-26T04:43:47.569Z,1
2022-12-26T04:44:13.223Z,1
2022-12-26T04:45:13.218Z,2
2022-12-26T04:46:13.268Z,2
2022-12-26T04:47:13.234Z,1
2022-12-26T04:48:13.208Z,1
2022-12-26T04:49:13.205Z,1
2022-12-26T04:50:13.202Z,1
2022-12-26T04:51:13.220Z,1
2022-12-26T04:52:13.236Z,1
2022-12-26T04:53:13.211Z,1
2022-12-26T04:54:13.234Z,1
2022-12-26T04:55:13.213Z,1
2022-12-26T04:56:13.286Z,1
2022-12-26T04:57:13.223Z,1
2022-12-26T04:58:13.280Z,1
2022-12-26T04:59:13.246Z,1
2022-12-26T05:00:13.213Z,1
2022-12-26T05:01:13.319Z,1
2022-12-26T05:02:13.306Z,1
2022-12-26T05:03:18.241Z,1
2022-12-26T05:04:13.205Z,1
2022-12-26T05:05:13.215Z,1
2022-12-26T05:06:13.199Z,1
2022-12-26T05:07:13.212Z,1
2022-12-26T05:08:13.215Z,1
2022-12-26T05:09:13.206Z,1
2022-12-26T05:10:13.211Z,1
2022-12-26T05:11:13.208Z,1
2022-12-26T05:12:13.233Z,1
2022-12-26T05:13:13.210Z,1
2022-12-26T05:14:13.204Z,1
2022-12-26T05:15:13.214Z,1
2022-12-26T05:16:13.326Z,1
2022-12-26T05:17:13.212Z,1
2022-12-26T05:18:13.238Z,1
2022-12-26T05:19:13.214Z,1
2022-12-26T05:20:13.205Z,1
2022-12-26T05:21:13.222Z,1
2022-12-26T05:22:13.228Z,1
2022-12-26T05:23:13.269Z,1
2022-12-26T05:24:13.292Z,1
2022-12-26T05:25:13.277Z,1
2022-12-26T05:26:13.408Z,1
2022-12-26T05:27:13.510Z,1
2022-12-26T05:28:13.426Z,1
2022-12-26T05:29:13.232Z,1
2022-12-26T05:30:13.289Z,1
2022-12-26T05:31:13.356Z,1
2022-12-26T05:32:13.224Z,1
2022-12-26T05:33:13.258Z,1
2022-12-26T05:34:13.221Z,1
2022-12-26T05:35:29.478Z,1
2022-12-26T05:36:13.213Z,1
2022-12-26T05:37:13.251Z,1
2022-12-26T05:38:13.214Z,1
2022-12-26T05:39:13.218Z,1
2022-12-26T05:40:13.203Z,1
2022-12-26T05:41:13.216Z,2
2022-12-26T05:42:13.315Z,1
2022-12-26T05:43:13.237Z,1
2022-12-26T05:44:13.210Z,1
2022-12-26T05:45:13.208Z,1
2022-12-26T05:46:13.242Z,1
2022-12-26T05:47:13.227Z,1
2022-12-26T05:48:13.219Z,1
2022-12-26T05:49:13.210Z,1
2022-12-26T05:50:13.217Z,1
2022-12-26T05:51:13.220Z,1
2022-12-26T05:52:13.219Z,1
2022-12-26T05:53:13.231Z,1
2022-12-26T05:54:13.209Z,1
2022-12-26T05:55:13.242Z,1
2022-12-26T05:56:13.254Z,1
2022-12-26T05:57:13.223Z,1
2022-12-26T05:58:13.281Z,1
2022-12-26T05:59:13.219Z,1
2022-12-26T06:00:13.209Z,1
2022-12-26T06:01:13.314Z,1
2022-12-26T06:02:13.309Z,1
2022-12-26T06:03:13.327Z,1
2022-12-26T06:04:13.226Z,1
2022-12-26T06:05:13.258Z,1
2022-12-26T06:06:13.243Z,1
2022-12-26T06:07:13.214Z,1
2022-12-26T06:08:13.227Z,1
2022-12-26T06:09:13.212Z,1
2022-12-26T06:10:13.225Z,1
2022-12-26T06:11:13.226Z,1
2022-12-26T06:12:13.221Z,1
2022-12-26T06:13:13.226Z,1
2022-12-26T06:14:13.239Z,1
2022-12-26T06:15:13.221Z,1
2022-12-26T06:16:13.279Z,1
2022-12-26T06:17:13.236Z,1
2022-12-26T06:18:13.235Z,1
2022-12-26T06:19:13.209Z,1
2022-12-26T06:20:13.313Z,1
2022-12-26T06:21:13.217Z,1
2022-12-26T06:22:13.228Z,1
2022-12-26T06:23:13.256Z,1
2022-12-26T06:24:13.215Z,1
2022-12-26T06:25:13.207Z,1
2022-12-26T06:26:13.260Z,1
2022-12-26T06:27:13.274Z,1
2022-12-26T06:28:13.232Z,1
2022-12-26T06:29:13.227Z,2
2022-12-26T06:30:13.223Z,1
2022-12-26T06:31:13.231Z,1
2022-12-26T06:32:13.212Z,1
2022-12-26T06:33:13.219Z,2
2022-12-26T06:34:13.221Z,2
2022-12-26T06:35:19.035Z,2
2022-12-26T06:36:13.225Z,2
2022-12-26T06:37:13.224Z,2
2022-12-26T06:38:13.249Z,2
2022-12-26T06:39:13.248Z,2
2022-12-26T06:40:13.206Z,2
2022-12-26T06:41:13.220Z,2
2022-12-26T06:42:13.295Z,2
2022-12-26T06:43:13.245Z,2
2022-12-26T06:44:17.906Z,2
2022-12-26T06:46:13.452Z,1
2022-12-26T06:47:13.284Z,1
2022-12-26T06:48:13.230Z,1
2022-12-26T06:49:13.215Z,1
2022-12-26T06:50:13.219Z,1
2022-12-26T06:51:13.224Z,1
2022-12-26T06:52:13.218Z,1
2022-12-26T06:53:13.231Z,1
2022-12-26T06:54:13.216Z,1
2022-12-26T06:55:13.219Z,1
2022-12-26T06:56:13.314Z,1
2022-12-26T06:57:13.318Z,1
2022-12-26T06:58:13.264Z,1
2022-12-26T06:59:13.342Z,1
2022-12-26T07:00:13.213Z,1
2022-12-26T07:01:13.318Z,1
2022-12-26T07:02:13.370Z,1
2022-12-26T07:03:13.296Z,1
2022-12-26T07:04:13.243Z,1
2022-12-26T07:05:13.261Z,1
2022-12-26T07:06:13.246Z,1
2022-12-26T07:07:13.229Z,1
2022-12-26T07:08:13.228Z,1
2022-12-26T07:09:13.235Z,1
2022-12-26T07:10:13.241Z,1
2022-12-26T07:11:13.219Z,1
2022-12-26T07:12:13.275Z,1
2022-12-26T07:13:13.237Z,1
2022-12-26T07:14:13.221Z,1
2022-12-26T07:15:13.232Z,1
2022-12-26T07:16:13.235Z,1
2022-12-26T07:17:13.219Z,1
2022-12-26T07:18:13.245Z,1
2022-12-26T07:19:13.219Z,1
2022-12-26T07:20:13.235Z,1
2022-12-26T07:21:13.223Z,1
2022-12-26T07:22:13.240Z,1
2022-12-26T07:23:13.259Z,1
2022-12-26T07:24:13.221Z,1
2022-12-26T07:25:13.226Z,1
2022-12-26T07:26:13.237Z,1
2022-12-26T07:27:13.223Z,1
2022-12-26T07:28:13.253Z,1
2022-12-26T07:29:13.268Z,1
2022-12-26T07:30:13.237Z,1
2022-12-26T07:31:13.265Z,1
2022-12-26T07:32:13.262Z,1
2022-12-26T07:33:13.277Z,1
2022-12-26T07:34:13.220Z,1
2022-12-26T07:35:13.222Z,1
2022-12-26T07:36:13.233Z,1
2022-12-26T07:37:13.211Z,1
2022-12-26T07:38:13.242Z,1
2022-12-26T07:39:13.228Z,1
2022-12-26T07:40:13.223Z,1
2022-12-26T07:41:13.226Z,1
2022-12-26T07:42:13.231Z,1
2022-12-26T07:43:13.243Z,1
2022-12-26T07:44:13.248Z,1
2022-12-26T07:45:13.225Z,1
2022-12-26T07:46:13.317Z,1
2022-12-26T07:47:13.228Z,1
2022-12-26T07:48:13.252Z,1
2022-12-26T07:49:13.238Z,1
2022-12-26T07:50:13.219Z,1
2022-12-26T07:51:13.218Z,1
2022-12-26T07:52:13.214Z,1
2022-12-26T07:53:13.233Z,1
2022-12-26T07:54:13.226Z,1
2022-12-26T07:55:13.303Z,1
2022-12-26T07:56:31.446Z,1
2022-12-26T07:57:46.857Z,1
2022-12-26T07:58:13.241Z,1
2022-12-26T07:59:13.238Z,1
2022-12-26T08:00:13.255Z,5
2022-12-26T08:01:13.267Z,13
2022-12-26T08:02:13.410Z,10
2022-12-26T08:03:13.336Z,10
2022-12-26T08:04:13.220Z,6
2022-12-26T08:05:13.234Z,5
2022-12-26T08:06:13.238Z,7
2022-12-26T08:07:13.263Z,7
2022-12-26T08:08:13.241Z,7
2022-12-26T08:09:13.229Z,6
2022-12-26T08:10:13.215Z,8
2022-12-26T08:11:13.225Z,8
2022-12-26T08:12:13.223Z,8
2022-12-26T08:13:13.295Z,8
2022-12-26T08:14:13.236Z,10
2022-12-26T08:15:13.227Z,17
2022-12-26T08:16:13.233Z,11
2022-12-26T08:17:13.247Z,7
2022-12-26T08:18:13.234Z,4
2022-12-26T08:19:13.223Z,4
2022-12-26T08:27:13.262Z,1
2022-12-26T08:28:13.263Z,1
2022-12-26T08:29:13.234Z,1
2022-12-26T08:30:13.248Z,1
2022-12-26T08:31:13.270Z,1
2022-12-26T08:32:13.276Z,1
2022-12-26T08:33:13.231Z,1
2022-12-26T08:34:13.255Z,1
2022-12-26T08:35:13.240Z,1
2022-12-26T08:36:13.264Z,1
2022-12-26T08:37:13.256Z,1
2022-12-26T08:38:13.323Z,1
2022-12-26T08:39:13.257Z,1
2022-12-26T08:40:15.445Z,1
2022-12-26T08:41:13.244Z,1
2022-12-26T08:42:13.249Z,1
2022-12-26T08:43:32.096Z,1
2022-12-26T08:44:28.182Z,1
2022-12-26T08:45:13.278Z,1
2022-12-26T08:46:13.304Z,1
2022-12-26T08:47:13.249Z,1
2022-12-26T08:48:13.260Z,2
2022-12-26T08:49:13.249Z,2
2022-12-26T08:50:13.257Z,2
2022-12-26T08:51:13.254Z,2
2022-12-26T08:52:13.248Z,2
2022-12-26T08:53:13.224Z,2
2022-12-26T08:54:13.281Z,2
2022-12-26T08:55:13.250Z,2
2022-12-26T08:56:13.266Z,2
2022-12-26T08:57:13.238Z,2
2022-12-26T08:58:13.271Z,2
2022-12-26T08:59:13.263Z,2
2022-12-26T09:00:13.264Z,2
2022-12-26T09:01:13.425Z,2
2022-12-26T09:02:13.525Z,2
2022-12-26T09:03:13.254Z,1
2022-12-26T09:04:13.279Z,1
2022-12-26T09:05:13.248Z,1
2022-12-26T09:06:23.333Z,1
2022-12-26T09:07:13.282Z,1
2022-12-26T09:08:13.229Z,1
2022-12-26T09:09:13.238Z,1
2022-12-26T09:10:13.238Z,1
2022-12-26T09:11:13.262Z,1
2022-12-26T09:12:13.242Z,1
2022-12-26T09:13:13.254Z,1
2022-12-26T09:14:13.326Z,1
2022-12-26T09:15:13.284Z,1
2022-12-26T09:16:13.241Z,1
2022-12-26T09:17:13.258Z,1
2022-12-26T09:18:13.255Z,1
2022-12-26T09:19:13.252Z,2
2022-12-26T09:20:13.242Z,2
2022-12-26T09:21:13.241Z,2
2022-12-26T09:22:13.242Z,2
2022-12-26T09:23:13.241Z,2
2022-12-26T09:24:13.240Z,2
2022-12-26T09:25:13.275Z,2
2022-12-26T09:26:13.240Z,2
2022-12-26T09:27:13.251Z,2
2022-12-26T09:28:13.251Z,2
2022-12-26T09:29:13.260Z,2
2022-12-26T09:30:13.302Z,3
2022-12-26T09:31:13.270Z,3
2022-12-26T09:32:13.248Z,3
2022-12-26T09:33:13.262Z,3
2022-12-26T09:34:13.260Z,2
2022-12-26T09:35:13.227Z,2
2022-12-26T09:36:14.791Z,2
2022-12-26T09:37:13.252Z,3
2022-12-26T09:38:13.240Z,3
2022-12-26T09:39:13.244Z,3
2022-12-26T09:40:13.248Z,4
2022-12-26T09:41:13.278Z,3
2022-12-26T09:42:13.259Z,4
2022-12-26T09:43:13.248Z,4
2022-12-26T09:44:13.259Z,4
2022-12-26T09:45:13.305Z,3
2022-12-26T09:46:13.260Z,4
2022-12-26T09:47:13.238Z,4
2022-12-26T09:48:13.243Z,3
2022-12-26T09:49:13.243Z,2
2022-12-26T09:50:13.298Z,2
2022-12-26T09:51:13.219Z,2
2022-12-26T09:52:13.222Z,2
2022-12-26T09:53:13.233Z,2
2022-12-26T09:54:13.263Z,1
2022-12-26T09:55:13.257Z,1
2022-12-26T09:56:23.742Z,1
2022-12-26T09:57:15.231Z,1
2022-12-26T09:58:13.285Z,1
2022-12-26T09:59:13.253Z,1
2022-12-26T10:00:13.244Z,1
2022-12-26T10:01:13.443Z,2
2022-12-26T10:02:13.359Z,2
2022-12-26T10:03:13.243Z,2
2022-12-26T10:04:13.317Z,2
2022-12-26T10:05:13.248Z,2
2022-12-26T10:06:29.438Z,2
2022-12-26T10:07:13.228Z,1
2022-12-26T10:08:13.238Z,1
2022-12-26T10:09:13.310Z,1
2022-12-26T10:10:13.261Z,1
2022-12-26T10:11:13.245Z,2
2022-12-26T10:12:13.248Z,1
2022-12-26T10:14:19.680Z,1
2022-12-26T10:15:13.263Z,1
2022-12-26T10:16:13.284Z,1
2022-12-26T10:17:13.275Z,1
2022-12-26T10:18:13.245Z,1
2022-12-26T10:19:13.250Z,2
2022-12-26T10:20:13.283Z,2
2022-12-26T10:21:13.244Z,2
2022-12-26T10:22:13.250Z,2
2022-12-26T10:23:13.235Z,2
2022-12-26T10:24:13.259Z,2
2022-12-26T10:25:13.256Z,2
2022-12-26T10:26:13.243Z,2
2022-12-26T10:27:13.254Z,2
2022-12-26T10:28:13.252Z,2
2022-12-26T10:29:13.381Z,2
2022-12-26T10:30:13.262Z,2
2022-12-26T10:31:13.332Z,2
2022-12-26T10:32:13.243Z,1
2022-12-26T10:33:13.260Z,1
2022-12-26T10:34:13.255Z,2
2022-12-26T10:35:13.281Z,2
2022-12-26T10:36:13.236Z,2
2022-12-26T10:37:13.233Z,2
2022-12-26T10:38:13.245Z,1
2022-12-26T10:39:13.274Z,1
2022-12-26T10:40:13.241Z,1
2022-12-26T10:41:13.257Z,1
2022-12-26T10:42:13.254Z,1
2022-12-26T10:43:13.239Z,1
2022-12-26T10:44:13.245Z,1
2022-12-26T10:45:13.271Z,1
2022-12-26T10:46:13.258Z,2
2022-12-26T10:47:13.252Z,1
2022-12-26T10:48:13.258Z,1
2022-12-26T10:49:13.262Z,1
2022-12-26T10:50:13.231Z,1
2022-12-26T10:51:13.250Z,2
2022-12-26T10:52:13.248Z,2
2022-12-26T10:53:13.252Z,1
2022-12-26T10:54:13.246Z,2
2022-12-26T10:55:28.260Z,2
2022-12-26T10:56:16.501Z,2
2022-12-26T10:57:13.273Z,2
2022-12-26T10:58:13.265Z,2
2022-12-26T10:59:13.246Z,2
2022-12-26T11:00:13.303Z,2
2022-12-26T11:01:13.277Z,2
2022-12-26T11:02:13.361Z,2
2022-12-26T11:03:13.349Z,2
2022-12-26T11:04:13.317Z,2
2022-12-26T11:05:33.162Z,2
2022-12-26T11:06:35.471Z,1
2022-12-26T11:07:13.255Z,1
2022-12-26T11:08:13.268Z,1
2022-12-26T11:09:13.249Z,1
2022-12-26T11:10:13.247Z,1
2022-12-26T11:11:13.250Z,1
2022-12-26T11:12:13.247Z,1
2022-12-26T11:13:13.235Z,1
2022-12-26T11:14:13.240Z,1
2022-12-26T11:15:13.251Z,1
2022-12-26T11:16:13.322Z,1
2022-12-26T11:17:13.247Z,1
2022-12-26T11:18:13.233Z,1
2022-12-26T11:19:13.260Z,1
2022-12-26T11:20:13.232Z,1
2022-12-26T11:21:13.259Z,1
2022-12-26T11:22:13.294Z,1
2022-12-26T11:23:13.243Z,1
2022-12-26T11:24:13.257Z,1
2022-12-26T11:25:13.256Z,1
2022-12-26T11:26:13.246Z,1
2022-12-26T11:27:13.249Z,1
2022-12-26T11:28:13.239Z,1
2022-12-26T11:29:13.327Z,1
2022-12-26T11:30:13.258Z,1
2022-12-26T11:31:13.287Z,1
2022-12-26T11:32:13.250Z,1
2022-12-26T11:33:14.938Z,1
2022-12-26T11:34:13.259Z,1
2022-12-26T11:35:13.249Z,1
2022-12-26T11:36:13.242Z,1
2022-12-26T11:37:13.234Z,1
2022-12-26T11:38:13.259Z,1
2022-12-26T11:39:13.262Z,1
2022-12-26T11:40:13.273Z,1
2022-12-26T11:41:13.282Z,1
2022-12-26T11:42:13.243Z,1
2022-12-26T11:43:13.247Z,1
2022-12-26T11:44:13.262Z,1
2022-12-26T11:46:13.324Z,1
2022-12-26T11:47:13.263Z,1
2022-12-26T11:48:13.245Z,1
2022-12-26T11:49:13.270Z,1
2022-12-26T11:50:13.230Z,1
2022-12-26T11:51:13.257Z,1
2022-12-26T11:52:13.244Z,1
2022-12-26T11:53:13.272Z,1
2022-12-26T11:54:13.260Z,1
2022-12-26T11:55:13.247Z,1
2022-12-26T11:56:13.291Z,1
2022-12-26T11:57:13.264Z,1
2022-12-26T11:58:13.255Z,1
2022-12-26T11:59:13.271Z,1
2022-12-26T12:00:13.242Z,1
2022-12-26T12:01:13.294Z,1
2022-12-26T12:02:13.296Z,1
2022-12-26T12:03:13.344Z,1
2022-12-26T12:04:13.279Z,2
2022-12-26T12:05:13.278Z,2
2022-12-26T12:07:13.257Z,2
2022-12-26T12:08:13.255Z,2
2022-12-26T12:09:13.265Z,2
2022-12-26T12:10:13.400Z,2
2022-12-26T12:11:13.274Z,1
2022-12-26T12:12:13.249Z,1
2022-12-26T12:13:13.247Z,1
2022-12-26T12:14:13.272Z,1
2022-12-26T12:15:13.255Z,1
2022-12-26T12:16:13.286Z,1
2022-12-26T12:17:13.260Z,1
2022-12-26T12:18:13.274Z,1
2022-12-26T12:19:13.259Z,1
2022-12-26T12:20:13.307Z,1
2022-12-26T12:21:13.283Z,1
2022-12-26T12:22:13.263Z,1
2022-12-26T12:23:13.260Z,1
2022-12-26T12:24:13.316Z,1
2022-12-26T12:25:13.245Z,1
2022-12-26T12:26:13.244Z,1
2022-12-26T12:27:13.268Z,1
2022-12-26T12:28:13.274Z,1
2022-12-26T12:29:13.274Z,2
2022-12-26T12:30:13.296Z,3
2022-12-26T12:31:13.298Z,1
2022-12-26T12:32:13.244Z,1
2022-12-26T12:33:13.249Z,1
2022-12-26T12:34:13.272Z,1
2022-12-26T12:35:13.256Z,2
2022-12-26T12:36:13.251Z,2
2022-12-26T12:37:13.262Z,2
2022-12-26T12:38:13.247Z,1
2022-12-26T12:39:13.268Z,1
2022-12-26T12:40:13.277Z,2
2022-12-26T12:41:13.236Z,2
2022-12-26T12:42:13.243Z,2
2022-12-26T12:43:13.262Z,2
2022-12-26T12:44:13.339Z,2
2022-12-26T12:45:13.247Z,2
2022-12-26T12:46:13.284Z,2
2022-12-26T12:47:13.264Z,2
2022-12-26T12:48:13.248Z,2
2022-12-26T12:49:13.268Z,3
2022-12-26T12:50:13.247Z,3
2022-12-26T12:51:13.309Z,3
2022-12-26T12:52:13.279Z,3
2022-12-26T12:53:13.247Z,3
2022-12-26T12:54:13.258Z,3
2022-12-26T12:55:13.272Z,3
2022-12-26T12:56:13.251Z,2
2022-12-26T12:57:13.257Z,2
2022-12-26T12:58:13.289Z,2
2022-12-26T12:59:13.288Z,2
2022-12-26T13:00:13.261Z,2
2022-12-26T13:01:13.445Z,1
2022-12-26T13:02:20.126Z,1
2022-12-26T13:03:13.300Z,1
2022-12-26T13:04:13.302Z,1
2022-12-26T13:05:13.244Z,1
2022-12-26T13:06:13.290Z,1
2022-12-26T13:07:13.321Z,1
2022-12-26T13:08:13.253Z,1
2022-12-26T13:09:13.275Z,1
2022-12-26T13:10:13.265Z,1
2022-12-26T13:11:13.260Z,1
2022-12-26T13:12:13.252Z,1
2022-12-26T13:13:13.253Z,1
2022-12-26T13:14:13.277Z,1
2022-12-26T13:15:13.263Z,1
2022-12-26T13:16:13.296Z,1
2022-12-26T13:17:13.258Z,1
2022-12-26T13:18:13.241Z,1
2022-12-26T13:19:13.303Z,1
2022-12-26T13:20:13.249Z,1
2022-12-26T13:21:13.276Z,1
2022-12-26T13:22:13.259Z,1
2022-12-26T13:23:13.306Z,1
2022-12-26T13:24:13.269Z,1
2022-12-26T13:25:13.252Z,1
2022-12-26T13:26:13.331Z,1
2022-12-26T13:27:13.263Z,1
2022-12-26T13:28:13.249Z,1
2022-12-26T13:29:13.280Z,1
2022-12-26T13:30:13.253Z,1
2022-12-26T13:31:13.325Z,1
2022-12-26T13:32:13.302Z,1
2022-12-26T13:33:13.252Z,1
2022-12-26T13:34:13.271Z,1
2022-12-26T13:35:13.255Z,1
2022-12-26T13:36:13.256Z,1
2022-12-26T13:37:13.253Z,1
2022-12-26T13:38:13.257Z,1
2022-12-26T13:39:13.265Z,1
2022-12-26T13:40:13.254Z,1
2022-12-26T13:41:13.246Z,1
2022-12-26T13:42:13.272Z,1
2022-12-26T13:43:13.278Z,1
2022-12-26T13:44:13.297Z,1
2022-12-26T13:45:13.241Z,1
2022-12-26T13:46:13.329Z,1
2022-12-26T13:47:13.249Z,1
2022-12-26T13:48:13.263Z,1
2022-12-26T13:49:13.283Z,1
2022-12-26T13:50:13.272Z,1
2022-12-26T13:51:13.239Z,1
2022-12-26T13:52:13.251Z,1
2022-12-26T13:53:13.260Z,1
2022-12-26T13:54:13.249Z,1
2022-12-26T13:55:13.324Z,1
2022-12-26T13:56:13.250Z,1
2022-12-26T13:57:13.299Z,1
2022-12-26T13:58:13.257Z,1
2022-12-26T13:59:13.285Z,1
2022-12-26T14:00:13.272Z,1
2022-12-26T14:01:13.313Z,1
2022-12-26T14:02:19.189Z,1
2022-12-26T14:03:18.494Z,1
2022-12-26T14:04:13.401Z,1
2022-12-26T14:05:13.267Z,1
2022-12-26T14:06:13.287Z,1
2022-12-26T14:07:13.255Z,1
2022-12-26T14:08:13.262Z,1
2022-12-26T14:09:13.252Z,1
2022-12-26T14:10:13.286Z,1
2022-12-26T14:11:13.245Z,1
2022-12-26T14:12:13.262Z,2
2022-12-26T14:13:13.259Z,2
2022-12-26T14:14:13.264Z,2
2022-12-26T14:15:13.281Z,1
2022-12-26T14:16:13.362Z,1
2022-12-26T14:17:13.269Z,1
2022-12-26T14:18:13.352Z,2
2022-12-26T14:19:13.266Z,2
2022-12-26T14:20:13.275Z,2
2022-12-26T14:21:13.259Z,2
2022-12-26T14:22:13.266Z,2
2022-12-26T14:23:13.313Z,2
2022-12-26T14:24:13.281Z,2
2022-12-26T14:25:13.275Z,2
2022-12-26T14:26:13.247Z,2
2022-12-26T14:27:23.265Z,2
2022-12-26T14:28:13.259Z,2
2022-12-26T14:29:13.256Z,1
2022-12-26T14:30:13.255Z,2
2022-12-26T14:31:13.391Z,2
2022-12-26T14:32:13.272Z,2
2022-12-26T14:33:13.250Z,2
2022-12-26T14:34:13.265Z,2
2022-12-26T14:35:13.261Z,2
2022-12-26T14:36:13.256Z,3
2022-12-26T14:37:13.307Z,3
2022-12-26T14:38:13.260Z,3
2022-12-26T14:39:13.255Z,3
2022-12-26T14:40:13.274Z,2
2022-12-26T14:41:13.276Z,2
2022-12-26T14:42:13.245Z,2
2022-12-26T14:43:13.392Z,2
2022-12-26T14:44:13.265Z,1
2022-12-26T14:45:13.278Z,2
2022-12-26T14:46:13.315Z,2
2022-12-26T14:47:13.259Z,1
2022-12-26T14:48:13.295Z,2
2022-12-26T14:49:13.300Z,2
2022-12-26T14:50:13.280Z,2
2022-12-26T14:51:13.265Z,1
2022-12-26T14:52:13.258Z,1
2022-12-26T14:53:13.269Z,2
2022-12-26T14:54:13.254Z,2
2022-12-26T14:55:13.267Z,2
2022-12-26T14:57:13.252Z,2
2022-12-26T14:58:13.299Z,2
2022-12-26T14:59:13.277Z,1
2022-12-26T15:00:13.278Z,2